Time;durP1;ratioP1;P1;durP2;ratioP2;P2;SDS_P1;SDS_P2;PMS_P1;PMS_P2;Temp;Humidity;BMP_temperature;BMP_pressure;BME280_temperature;BME280_humidity;BME280_pressure;Samples;Min_cycle;Max_cycle;Signal;HPM_P1;HPM_P2
2022/03/23 00:02:15;;;;;;;16.23;6.30;;;2.80;88.70;;;;;;5027771;28;20245;-65
2022/03/23 00:04:41;;;;;;;12.67;6.03;;;2.80;88.10;;;;;;5027894;28;20225;-63
2022/03/23 00:07:07;;;;;;;12.17;6.10;;;2.70;87.70;;;;;;5026693;28;20186;-63
2022/03/23 00:09:32;;;;;;;19.00;6.93;;;2.70;88.10;;;;;;5026978;28;20491;-63
2022/03/23 00:11:58;;;;;;;31.13;6.53;;;2.60;88.40;;;;;;5027205;28;20713;-63
2022/03/23 00:14:24;;;;;;;14.47;6.50;;;2.70;88.30;;;;;;5026890;28;20256;-64
2022/03/23 00:16:50;;;;;;;20.80;6.90;;;2.70;88.30;;;;;;5027356;28;20533;-64
2022/03/23 00:19:18;;;;;;;23.40;7.00;;;2.60;88.40;;;;;;5026882;28;20236;-64
2022/03/23 00:21:44;;;;;;;12.53;6.37;;;2.60;88.70;;;;;;5025671;28;20198;-64
2022/03/23 00:24:09;;;;;;;17.57;7.50;;;2.60;88.80;;;;;;5030019;28;20803;-63
2022/03/23 00:26:36;;;;;;;16.23;7.80;;;2.50;88.70;;;;;;5030663;28;20194;-63
2022/03/23 00:29:02;;;;;;;18.03;7.73;;;2.50;88.70;;;;;;5030651;28;20186;-63
2022/03/23 00:31:27;;;;;;;14.57;7.83;;;2.50;88.80;;;;;;5030521;28;20468;-64
2022/03/23 00:33:54;;;;;;;17.70;8.20;;;2.40;88.70;;;;;;5030563;28;20432;-64
2022/03/23 00:36:20;;;;;;;12.10;6.60;;;2.60;89.30;;;;;;5030283;28;20179;-64
2022/03/23 00:38:47;;;;;;;20.73;9.07;;;2.50;88.80;;;;;;5023060;28;20493;-64
2022/03/23 00:41:13;;;;;;;14.23;6.67;;;2.50;89.00;;;;;;5035898;28;20538;-64
2022/03/23 00:43:39;;;;;;;13.10;7.00;;;2.50;89.10;;;;;;5029241;28;21259;-63
2022/03/23 00:46:05;;;;;;;18.77;7.63;;;2.40;89.40;;;;;;5030422;28;20452;-63
2022/03/23 00:48:32;;;;;;;21.50;8.77;;;2.30;89.90;;;;;;5030098;28;20443;-63
2022/03/23 00:50:58;;;;;;;16.17;7.43;;;2.20;89.90;;;;;;5029843;28;20519;-63
2022/03/23 00:53:24;;;;;;;11.30;6.80;;;2.20;90.30;;;;;;5031172;28;21032;-63
2022/03/23 00:55:49;;;;;;;17.27;7.87;;;2.10;90.30;;;;;;5031917;28;20550;-64
2022/03/23 00:58:15;;;;;;;18.40;7.37;;;2.10;90.30;;;;;;5029894;28;20191;-63
2022/03/23 01:00:41;;;;;;;12.37;7.60;;;2.10;90.40;;;;;;5030202;28;20201;-63
2022/03/23 01:03:07;;;;;;;11.20;6.30;;;2.10;90.30;;;;;;5030107;28;20813;-64
2022/03/23 01:05:33;;;;;;;13.57;5.07;;;2.00;89.80;;;;;;5029600;28;20316;-63
2022/03/23 01:07:59;;;;;;;16.00;7.30;;;2.00;89.90;;;;;;5030840;28;20201;-63
2022/03/23 01:10:24;;;;;;;14.37;5.50;;;2.00;89.70;;;;;;5030045;28;20210;-63
2022/03/23 01:12:50;;;;;;;11.13;5.37;;;1.90;89.10;;;;;;5031087;28;20448;-64
2022/03/23 01:15:19;;;;;;;14.20;6.13;;;2.00;89.70;;;;;;5029618;28;20666;-64
2022/03/23 01:17:45;;;;;;;15.40;6.17;;;2.00;89.30;;;;;;5031547;28;20433;-64
2022/03/23 01:20:13;;;;;;;18.90;6.97;;;1.90;89.20;;;;;;5029439;28;20790;-64
2022/03/23 01:22:41;;;;;;;16.63;5.93;;;1.90;89.70;;;;;;5032793;28;20433;-63
2022/03/23 01:25:08;;;;;;;15.30;6.47;;;1.90;90.20;;;;;;5029712;28;20444;-63
2022/03/23 01:27:35;;;;;;;14.20;6.80;;;1.90;89.80;;;;;;5032328;28;20966;-63
2022/03/23 01:30:05;;;;;;;21.10;7.10;;;1.80;89.80;;;;;;5028889;28;20556;-64
2022/03/23 01:32:31;;;;;;;12.57;6.80;;;1.80;90.10;;;;;;5029992;28;20831;-64
2022/03/23 01:34:56;;;;;;;15.43;7.03;;;1.80;90.20;;;;;;5029240;28;20471;-63
2022/03/23 01:37:22;;;;;;;15.70;7.57;;;1.70;90.30;;;;;;5029788;28;20459;-63
2022/03/23 01:39:47;;;;;;;13.20;6.40;;;1.70;90.40;;;;;;5030265;28;20792;-63
2022/03/23 01:42:13;;;;;;;13.60;7.70;;;1.70;91.00;;;;;;5030510;28;20197;-63
2022/03/23 01:44:39;;;;;;;19.23;9.23;;;1.60;90.50;;;;;;5029394;28;20182;-63
2022/03/23 01:47:11;;;;;;;23.63;9.33;;;1.60;90.70;;;;;;5030964;28;20568;-63
2022/03/23 01:49:41;;;;;;;18.93;8.27;;;1.60;90.70;;;;;;5030543;28;20340;-63
2022/03/23 01:52:09;;;;;;;18.70;6.87;;;1.60;90.80;;;;;;5028349;28;20464;-63
2022/03/23 01:54:36;;;;;;;15.63;6.47;;;1.60;90.80;;;;;;5031396;28;20769;-63
2022/03/23 01:57:04;;;;;;;15.87;7.60;;;1.60;90.70;;;;;;5029409;28;20451;-63
2022/03/23 01:59:29;;;;;;;17.90;7.70;;;1.50;90.70;;;;;;5029340;28;20749;-63
2022/03/23 02:01:56;;;;;;;19.40;8.30;;;1.50;90.70;;;;;;5029787;28;20425;-64
2022/03/23 02:04:22;;;;;;;12.73;6.50;;;1.50;90.90;;;;;;5029591;28;20205;-64
2022/03/23 02:06:48;;;;;;;15.77;8.37;;;1.50;90.70;;;;;;5023295;28;20437;-63
2022/03/23 02:09:15;;;;;;;23.10;7.77;;;1.40;90.90;;;;;;5029189;28;20445;-64
2022/03/23 02:11:42;;;;;;;16.97;7.50;;;1.40;91.00;;;;;;5029577;28;20788;-63
2022/03/23 02:14:08;;;;;;;17.77;8.57;;;1.30;91.10;;;;;;5029451;28;20428;-64
2022/03/23 02:16:45;;;;;;;24.83;9.67;;;1.30;91.20;;;;;;5029178;28;20436;-63
2022/03/23 02:19:11;;;;;;;19.63;8.67;;;1.20;91.80;;;;;;5029009;28;21039;-63
2022/03/23 02:21:37;;;;;;;14.20;6.27;;;1.10;91.50;;;;;;5029484;28;20429;-64
2022/03/23 02:24:06;;;;;;;16.73;8.00;;;1.10;91.60;;;;;;5029618;28;20186;-64
2022/03/23 02:26:32;;;;;;;14.10;7.53;;;1.10;91.80;;;;;;5032999;28;20497;-64
2022/03/23 02:29:00;;;;;;;20.77;8.03;;;1.10;91.90;;;;;;5029530;28;20436;-64
2022/03/23 02:31:26;;;;;;;18.00;7.53;;;1.10;91.70;;;;;;5029382;28;20472;-64
2022/03/23 02:33:52;;;;;;;11.40;6.77;;;1.30;91.70;;;;;;5029094;28;20447;-64
2022/03/23 02:36:18;;;;;;;13.00;6.40;;;1.10;91.40;;;;;;5028728;28;20466;-64
2022/03/23 02:38:44;;;;;;;15.67;6.87;;;1.20;91.50;;;;;;5024393;28;20445;-64
2022/03/23 02:41:10;;;;;;;18.47;8.10;;;1.20;91.50;;;;;;5027625;28;20464;-63
2022/03/23 02:43:36;;;;;;;23.60;7.27;;;1.20;91.40;;;;;;5028932;28;20190;-64
2022/03/23 02:46:02;;;;;;;13.00;6.20;;;1.10;91.60;;;;;;5028292;28;20425;-64
2022/03/23 02:48:28;;;;;;;14.90;7.10;;;1.10;91.80;;;;;;5028086;28;20379;-64
2022/03/23 02:50:54;;;;;;;18.97;7.90;;;1.10;91.70;;;;;;5028769;28;20942;-62
2022/03/23 03:02:21;;;;;;;19.43;7.90;;;1.00;91.80;;;;;;5026343;28;20421;-63
2022/03/23 03:04:48;;;;;;;23.10;9.10;;;1.00;92.00;;;;;;5028811;28;21079;-63
2022/03/23 03:07:14;;;;;;;20.93;8.93;;;1.00;91.90;;;;;;5028287;28;20900;-63
2022/03/23 03:09:40;;;;;;;19.70;8.77;;;1.00;91.70;;;;;;5027996;28;20449;-63
2022/03/23 03:12:07;;;;;;;14.80;7.63;;;0.90;91.70;;;;;;5028343;28;20217;-64
2022/03/23 03:14:33;;;;;;;20.07;10.23;;;0.90;91.90;;;;;;5028680;28;20309;-64
2022/03/23 03:16:59;;;;;;;23.27;9.27;;;1.00;92.00;;;;;;5027987;28;20445;-63
2022/03/23 03:19:25;;;;;;;21.90;10.07;;;1.00;92.00;;;;;;5027976;28;20433;-63
2022/03/23 03:21:50;;;;;;;16.90;7.13;;;1.00;92.00;;;;;;5028128;28;20659;-63
2022/03/23 03:24:16;;;;;;;17.00;8.10;;;1.00;92.10;;;;;;5028105;28;20225;-63
2022/03/23 03:26:43;;;;;;;19.07;7.90;;;1.00;92.20;;;;;;5028269;28;20186;-63
2022/03/23 03:29:09;;;;;;;16.77;8.10;;;1.00;92.30;;;;;;5027598;28;20219;-63
2022/03/23 03:31:34;;;;;;;24.13;10.17;;;1.00;92.20;;;;;;5028085;28;21127;-63
2022/03/23 03:37:22;;;;;;;14.53;7.40;;;0.90;92.50;;;;;;5023538;28;20205;-63
2022/03/23 03:39:47;;;;;;;21.50;9.00;;;0.90;92.40;;;;;;5027782;28;20441;-63
2022/03/23 03:42:13;;;;;;;20.00;9.10;;;0.80;92.60;;;;;;5028339;28;20252;-63
2022/03/23 03:44:39;;;;;;;17.80;9.20;;;0.80;92.80;;;;;;5028107;28;20194;-63
2022/03/23 03:47:05;;;;;;;27.33;10.13;;;0.90;92.60;;;;;;5028255;28;20436;-63
2022/03/23 03:49:31;;;;;;;15.77;8.07;;;0.90;92.80;;;;;;5027457;28;20186;-63
2022/03/23 03:51:57;;;;;;;17.70;8.93;;;0.80;92.60;;;;;;5026534;28;20678;-63
2022/03/23 03:54:23;;;;;;;19.33;8.27;;;0.80;92.70;;;;;;5026203;28;20178;-64
2022/03/23 03:56:49;;;;;;;18.37;8.73;;;0.80;92.70;;;;;;5028925;28;20889;-63
2022/03/23 03:59:14;;;;;;;17.47;9.10;;;0.70;92.90;;;;;;5031409;28;20269;-63
2022/03/23 04:01:40;;;;;;;22.13;10.17;;;0.70;93.00;;;;;;5031765;28;20200;-63
2022/03/23 04:04:06;;;;;;;15.27;7.50;;;0.70;93.10;;;;;;5032146;28;20551;-63
2022/03/23 04:06:31;;;;;;;15.77;9.27;;;0.70;92.90;;;;;;5031717;28;20504;-63
2022/03/23 04:08:57;;;;;;;21.97;8.97;;;0.70;92.80;;;;;;5030839;28;20186;-64
2022/03/23 04:11:23;;;;;;;23.47;9.97;;;0.60;93.00;;;;;;5032054;28;20982;-64
2022/03/23 04:13:48;;;;;;;21.97;8.80;;;0.60;93.00;;;;;;5031474;28;20190;-63
2022/03/23 04:16:14;;;;;;;18.30;8.97;;;0.50;93.00;;;;;;5031702;28;20214;-63
2022/03/23 04:18:39;;;;;;;22.87;10.03;;;0.50;93.10;;;;;;5031020;28;20678;-63
2022/03/23 04:21:05;;;;;;;20.17;9.37;;;0.40;93.00;;;;;;5030273;28;20190;-63
2022/03/23 04:23:32;;;;;;;19.40;9.00;;;0.40;93.40;;;;;;5030871;28;20206;-63
2022/03/23 04:25:57;;;;;;;24.17;10.10;;;0.40;93.40;;;;;;5031323;28;20225;-64
2022/03/23 04:28:23;;;;;;;16.93;8.00;;;0.40;93.40;;;;;;5030519;28;21307;-63
2022/03/23 04:30:49;;;;;;;19.63;8.57;;;0.50;93.20;;;;;;5031334;28;20202;-63
2022/03/23 04:33:15;;;;;;;18.57;8.17;;;0.40;93.40;;;;;;5031535;28;20293;-63
2022/03/23 04:35:41;;;;;;;27.40;10.80;;;0.40;93.30;;;;;;5029881;28;20186;-63
2022/03/23 04:38:06;;;;;;;20.93;9.27;;;0.40;93.50;;;;;;5030005;28;20217;-63
2022/03/23 04:40:32;;;;;;;25.90;11.27;;;0.40;93.40;;;;;;5027227;28;20236;-63
2022/03/23 04:42:58;;;;;;;33.37;12.00;;;0.30;93.30;;;;;;5030101;28;20206;-63
2022/03/23 04:45:25;;;;;;;18.83;8.63;;;0.20;93.40;;;;;;5031234;28;20190;-64
2022/03/23 04:47:51;;;;;;;26.50;11.60;;;0.10;93.70;;;;;;5031506;28;20452;-64
2022/03/23 04:50:17;;;;;;;20.50;9.10;;;0.10;93.70;;;;;;5030018;28;20866;-64
2022/03/23 04:52:45;;;;;;;22.00;10.53;;;0.20;93.90;;;;;;5029559;28;20432;-63
2022/03/23 04:55:13;;;;;;;23.10;10.13;;;0.20;93.90;;;;;;5030842;28;20187;-63
2022/03/23 04:57:39;;;;;;;23.00;9.13;;;0.30;93.90;;;;;;5031103;28;20433;-64
2022/03/23 05:00:10;;;;;;;22.57;10.20;;;0.20;93.80;;;;;;5030301;28;20448;-64
2022/03/23 05:02:38;;;;;;;15.77;8.80;;;0.20;93.90;;;;;;5030910;28;21135;-63
2022/03/23 05:05:05;;;;;;;21.80;9.90;;;0.20;94.00;;;;;;5030333;28;20523;-64
2022/03/23 05:07:31;;;;;;;26.70;9.73;;;0.20;94.00;;;;;;5029480;28;20647;-63
2022/03/23 05:09:56;;;;;;;24.77;11.70;;;0.20;94.00;;;;;;5029600;28;21239;-63
2022/03/23 05:12:22;;;;;;;24.00;9.97;;;0.20;94.00;;;;;;5029056;28;20774;-63
2022/03/23 05:14:47;;;;;;;21.47;10.27;;;0.20;93.80;;;;;;5030609;28;20186;-64
2022/03/23 05:17:13;;;;;;;19.37;9.70;;;0.20;94.00;;;;;;5030068;28;20206;-63
2022/03/23 05:19:39;;;;;;;24.47;10.20;;;0.20;93.80;;;;;;5029847;28;20259;-63
2022/03/23 05:22:05;;;;;;;26.73;11.83;;;0.20;93.80;;;;;;5030096;28;20213;-63
2022/03/23 05:24:30;;;;;;;27.30;11.40;;;0.20;93.70;;;;;;5030016;28;20194;-63
2022/03/23 05:26:56;;;;;;;21.83;11.30;;;0.20;93.90;;;;;;5030123;28;20918;-63
2022/03/23 05:29:22;;;;;;;29.90;11.30;;;0.20;93.70;;;;;;5029491;28;20229;-64
2022/03/23 05:31:47;;;;;;;27.63;12.47;;;0.10;93.70;;;;;;5029899;28;20225;-63
2022/03/23 05:34:13;;;;;;;21.73;9.23;;;0.10;94.30;;;;;;5030057;28;20190;-64
2022/03/23 05:36:39;;;;;;;25.17;10.60;;;0.10;94.60;;;;;;5029252;28;20182;-64
2022/03/23 05:39:05;;;;;;;21.10;9.47;;;0.10;94.40;;;;;;5028777;28;20270;-63
2022/03/23 05:41:30;;;;;;;19.50;9.53;;;0.00;94.50;;;;;;5029929;28;20198;-63
2022/03/23 05:43:56;;;;;;;23.40;9.20;;;0.10;94.90;;;;;;5029859;28;20205;-64
2022/03/23 05:46:22;;;;;;;18.07;9.63;;;0.10;94.70;;;;;;5029974;28;20205;-63
2022/03/23 05:48:47;;;;;;;22.17;10.27;;;0.20;94.70;;;;;;5029125;28;20233;-64
2022/03/23 05:51:13;;;;;;;26.00;10.17;;;0.20;94.50;;;;;;5028844;28;20264;-64
2022/03/23 05:53:40;;;;;;;30.03;10.07;;;0.30;94.50;;;;;;5027945;28;20260;-64
2022/03/23 05:56:07;;;;;;;19.57;10.30;;;0.30;94.40;;;;;;5029650;28;20206;-64
2022/03/23 05:58:34;;;;;;;31.03;10.93;;;0.20;94.40;;;;;;5029165;28;20937;-64
2022/03/23 06:01:00;;;;;;;25.33;10.73;;;0.20;94.60;;;;;;5029422;28;20428;-64
2022/03/23 06:03:25;;;;;;;31.00;11.10;;;0.30;94.70;;;;;;5029644;28;20471;-64
2022/03/23 06:05:52;;;;;;;25.10;9.00;;;0.40;94.70;;;;;;5028643;28;20452;-65
2022/03/23 06:08:17;;;;;;;19.77;9.33;;;0.40;94.50;;;;;;5028465;28;20186;-64
2022/03/23 06:10:43;;;;;;;25.00;10.40;;;0.50;94.40;;;;;;5029651;28;20515;-64
2022/03/23 06:13:09;;;;;;;19.50;9.17;;;0.50;94.40;;;;;;5029156;28;20193;-64
2022/03/23 06:15:35;;;;;;;21.20;9.23;;;0.50;94.50;;;;;;5025177;28;20274;-64
2022/03/23 06:18:00;;;;;;;21.50;9.33;;;0.50;94.70;;;;;;5028406;28;20820;-65
2022/03/23 06:20:26;;;;;;;34.47;12.83;;;0.60;94.70;;;;;;5027325;28;20186;-64
2022/03/23 06:22:52;;;;;;;24.60;11.17;;;0.70;94.60;;;;;;5027604;28;20190;-64
2022/03/23 06:25:18;;;;;;;26.70;11.43;;;0.70;94.40;;;;;;5028326;28;20282;-65
2022/03/23 06:27:43;;;;;;;25.43;11.10;;;0.80;94.50;;;;;;5026306;28;20218;-65
2022/03/23 06:30:10;;;;;;;27.40;9.50;;;0.90;94.70;;;;;;5027037;28;20476;-64
2022/03/23 06:32:35;;;;;;;24.87;11.03;;;0.90;95.10;;;;;;5024993;28;20214;-64
2022/03/23 06:35:03;;;;;;;19.20;10.30;;;1.00;95.20;;;;;;5024738;28;20928;-64
2022/03/23 06:37:30;;;;;;;22.63;10.20;;;1.10;95.10;;;;;;5023316;28;20186;-64
2022/03/23 06:39:57;;;;;;;23.87;10.30;;;1.20;95.10;;;;;;5022862;28;20536;-64
2022/03/23 06:42:23;;;;;;;29.07;10.93;;;1.30;95.20;;;;;;5018766;28;20604;-64
2022/03/23 06:44:49;;;;;;;18.40;8.93;;;1.50;95.30;;;;;;5025058;28;20516;-64
2022/03/23 06:47:14;;;;;;;19.13;9.80;;;1.60;94.90;;;;;;5027058;28;20512;-65
2022/03/23 06:49:40;;;;;;;16.43;8.37;;;1.80;94.70;;;;;;5026654;28;20605;-66
2022/03/23 06:52:06;;;;;;;20.23;10.70;;;1.90;94.50;;;;;;5025876;28;20213;-65
2022/03/23 06:54:32;;;;;;;20.90;10.20;;;2.10;94.60;;;;;;5022344;28;20702;-65
2022/03/23 06:56:58;;;;;;;24.43;11.50;;;2.30;94.40;;;;;;5020723;28;20456;-65
2022/03/23 06:59:23;;;;;;;19.57;10.03;;;2.50;94.40;;;;;;5022443;28;20544;-65
2022/03/23 07:01:49;;;;;;;21.50;10.70;;;2.80;94.20;;;;;;5025872;28;20587;-65
2022/03/23 07:04:15;;;;;;;24.00;9.63;;;3.10;93.90;;;;;;5025744;28;20190;-65
2022/03/23 07:06:41;;;;;;;20.40;9.43;;;3.30;93.20;;;;;;5025522;28;20775;-65
2022/03/23 07:11:52;;;;;;;22.97;9.67;;;3.80;92.60;;;;;;5026337;28;20476;-65
2022/03/23 07:14:17;;;;;;;20.27;8.63;;;4.00;92.10;;;;;;5025829;28;20799;-66
2022/03/23 07:16:43;;;;;;;23.33;9.60;;;4.20;91.90;;;;;;5025410;28;20183;-66
2022/03/23 07:19:10;;;;;;;15.67;8.57;;;4.40;91.70;;;;;;5026022;28;20190;-65
2022/03/23 07:21:35;;;;;;;22.00;9.53;;;4.70;91.40;;;;;;5025756;28;20186;-65
2022/03/23 07:24:01;;;;;;;20.70;9.33;;;5.20;91.20;;;;;;5025693;28;20444;-65
2022/03/23 07:26:27;;;;;;;17.27;9.33;;;5.60;90.80;;;;;;5026220;28;20220;-65
2022/03/23 07:28:52;;;;;;;19.33;7.63;;;6.50;90.00;;;;;;5025678;28;20198;-65
2022/03/23 07:31:18;;;;;;;24.10;9.13;;;7.50;87.00;;;;;;5025148;28;20316;-66
2022/03/23 07:33:44;;;;;;;19.50;9.20;;;8.60;83.30;;;;;;5025562;28;20220;-66
2022/03/23 07:36:12;;;;;;;25.90;10.20;;;9.50;80.40;;;;;;5020840;28;20187;-66
2022/03/23 07:38:38;;;;;;;23.83;8.90;;;10.20;77.70;;;;;;5024384;28;20651;-66
2022/03/23 07:41:04;;;;;;;18.63;8.23;;;10.50;77.70;;;;;;5026739;28;20449;-67
2022/03/23 07:43:31;;;;;;;18.53;8.43;;;11.10;74.50;;;;;;5026759;28;20522;-67
2022/03/23 07:45:57;;;;;;;14.40;8.40;;;12.00;72.70;;;;;;5027205;28;21187;-67
2022/03/23 07:48:23;;;;;;;16.03;8.20;;;12.70;70.30;;;;;;5027081;28;20222;-67
2022/03/23 07:50:51;;;;;;;16.77;8.70;;;13.30;66.60;;;;;;5026790;28;20546;-66
2022/03/23 07:53:17;;;;;;;17.33;8.47;;;14.10;66.40;;;;;;5024433;28;20926;-66
2022/03/23 07:55:43;;;;;;;14.43;7.57;;;15.60;61.90;;;;;;5027061;28;20421;-67
2022/03/23 07:58:08;;;;;;;17.03;7.37;;;16.40;59.10;;;;;;5026713;28;20483;-68
2022/03/23 08:00:35;;;;;;;18.10;8.10;;;16.60;57.40;;;;;;5026974;28;20182;-66
2022/03/23 08:03:00;;;;;;;14.30;8.40;;;16.30;57.50;;;;;;5026797;28;20186;-66
2022/03/23 08:05:26;;;;;;;19.93;7.93;;;16.50;56.80;;;;;;5027181;28;20417;-66
2022/03/23 08:07:52;;;;;;;16.57;8.13;;;16.80;56.50;;;;;;5025602;28;20198;-65
2022/03/23 08:10:18;;;;;;;32.33;9.90;;;16.90;56.60;;;;;;5025776;28;20413;-66
2022/03/23 08:12:43;;;;;;;18.13;8.77;;;17.10;56.10;;;;;;5025839;28;20198;-65
2022/03/23 08:15:09;;;;;;;16.33;8.77;;;17.20;55.90;;;;;;5024578;28;20301;-66
2022/03/23 08:17:38;;;;;;;19.53;8.43;;;17.20;55.70;;;;;;5023711;28;20251;-65
2022/03/23 08:23:04;;;;;;;18.20;8.80;;;16.10;56.60;;;;;;5020075;28;20551;-66
2022/03/23 08:25:30;;;;;;;12.90;7.67;;;16.00;57.30;;;;;;5022767;28;20408;-66
2022/03/23 08:27:57;;;;;;;14.13;7.37;;;16.10;57.20;;;;;;5023694;28;20425;-66
2022/03/23 08:30:24;;;;;;;21.27;8.07;;;16.40;56.30;;;;;;5022900;28;20421;-66
2022/03/23 08:32:50;;;;;;;17.67;8.63;;;16.50;56.70;;;;;;5024200;28;20424;-65
2022/03/23 08:35:16;;;;;;;16.83;8.60;;;16.80;54.60;;;;;;5024032;28;20466;-67
2022/03/23 08:37:42;;;;;;;17.90;9.33;;;17.40;51.70;;;;;;5023764;28;20424;-66
2022/03/23 08:40:08;;;;;;;14.67;8.57;;;18.10;50.00;;;;;;5021792;28;20197;-66
2022/03/23 08:42:34;;;;;;;14.33;7.60;;;17.80;50.50;;;;;;5018201;28;20447;-65
2022/03/23 08:44:59;;;;;;;15.20;6.97;;;17.80;50.20;;;;;;5025573;28;20595;-66
2022/03/23 08:47:27;;;;;;;27.33;9.20;;;17.30;50.10;;;;;;5025837;28;20265;-66
2022/03/23 08:49:53;;;;;;;18.83;8.57;;;16.80;51.20;;;;;;5023732;28;20178;-66
2022/03/23 08:52:19;;;;;;;17.30;7.80;;;16.30;51.50;;;;;;5022623;28;20500;-66
2022/03/23 08:54:45;;;;;;;19.10;7.67;;;16.40;53.10;;;;;;5029487;28;20432;-66
2022/03/23 08:57:10;;;;;;;14.93;7.40;;;16.70;52.10;;;;;;5028525;28;20177;-66
2022/03/23 08:59:36;;;;;;;16.53;8.40;;;16.50;52.70;;;;;;5028203;28;20328;-66
2022/03/23 09:02:01;;;;;;;11.80;6.83;;;16.70;52.30;;;;;;5028529;28;20221;-70
2022/03/23 09:04:27;;;;;;;21.80;9.40;;;16.80;52.90;;;;;;5028229;28;20186;-66
2022/03/23 09:06:53;;;;;;;19.10;8.80;;;17.00;51.80;;;;;;5028000;28;20216;-65
2022/03/23 09:09:18;;;;;;;25.97;8.20;;;17.10;52.20;;;;;;5027439;28;20193;-65
2022/03/23 09:11:44;;;;;;;16.13;8.47;;;16.90;51.90;;;;;;5027760;28;20216;-65
2022/03/23 09:14:11;;;;;;;14.20;6.67;;;17.10;51.80;;;;;;5027766;28;20186;-65
2022/03/23 09:16:37;;;;;;;16.73;7.03;;;17.20;47.70;;;;;;5029387;28;20227;-66
2022/03/23 09:19:03;;;;;;;11.50;7.30;;;17.20;47.20;;;;;;5028500;28;20448;-66
2022/03/23 09:21:29;;;;;;;14.00;6.93;;;17.30;47.20;;;;;;5028653;28;20194;-65
2022/03/23 09:23:55;;;;;;;20.40;7.60;;;17.30;46.10;;;;;;5027471;28;20174;-66
2022/03/23 09:26:20;;;;;;;10.77;6.07;;;17.30;46.90;;;;;;5028747;28;20214;-66
2022/03/23 09:28:46;;;;;;;12.77;6.33;;;17.40;47.20;;;;;;5028869;28;20217;-66
2022/03/23 09:31:12;;;;;;;15.27;7.60;;;17.80;47.10;;;;;;5028429;28;20205;-66
2022/03/23 09:33:37;;;;;;;13.10;7.17;;;17.40;47.70;;;;;;5028697;28;20184;-65
2022/03/23 09:36:04;;;;;;;13.90;7.70;;;17.10;49.60;;;;;;5027741;28;20174;-67
2022/03/23 09:38:30;;;;;;;10.37;5.90;;;16.80;49.60;;;;;;5027867;28;20275;-66
2022/03/23 09:40:56;;;;;;;14.70;7.40;;;17.10;47.60;;;;;;5028441;28;20456;-65
2022/03/23 09:43:24;;;;;;;15.97;6.73;;;16.80;48.30;;;;;;5028562;28;20424;-65
2022/03/23 09:45:51;;;;;;;10.30;6.50;;;16.60;49.20;;;;;;5027732;28;20929;-66
2022/03/23 09:48:21;;;;;;;12.70;6.73;;;17.00;47.40;;;;;;5027444;28;20516;-65
2022/03/23 09:50:50;;;;;;;14.60;6.40;;;17.10;46.60;;;;;;5027796;28;20556;-65
2022/03/23 09:53:16;;;;;;;12.40;5.43;;;17.10;43.10;;;;;;5022167;28;20417;-64
2022/03/23 09:55:43;;;;;;;7.10;4.57;;;16.40;43.30;;;;;;5027350;28;20811;-64
2022/03/23 09:58:10;;;;;;;11.17;5.67;;;16.10;44.50;;;;;;5026765;28;20274;-64
2022/03/23 10:00:41;;;;;;;9.73;5.10;;;15.50;44.10;;;;;;5025284;28;20425;-65
2022/03/23 10:03:12;;;;;;;7.97;4.90;;;15.50;46.20;;;;;;5024969;28;20425;-65
2022/03/23 10:06:15;;;;;;;12.57;5.43;;;15.40;44.20;;;;;;5027299;28;20519;-65
2022/03/23 10:09:20;;;;;;;14.73;5.60;;;15.30;45.60;;;;;;5024181;28;20848;-65
2022/03/23 10:12:23;;;;;;;10.50;4.47;;;15.20;45.20;;;;;;5020572;28;20541;-67
2022/03/23 10:15:36;;;;;;;9.17;4.90;;;15.30;46.10;;;;;;5021503;28;20428;-67
2022/03/23 10:18:20;;;;;;;7.80;5.10;;;15.30;45.50;;;;;;5023339;28;20429;-68
2022/03/23 10:20:47;;;;;;;11.50;6.10;;;15.30;45.10;;;;;;5026731;28;20428;-68
2022/03/23 10:23:12;;;;;;;9.30;4.90;;;15.40;46.10;;;;;;5024957;28;20973;-65
2022/03/23 10:25:40;;;;;;;13.57;6.30;;;15.40;45.20;;;;;;5025214;28;20429;-65
2022/03/23 10:28:17;;;;;;;6.57;4.57;;;15.60;44.50;;;;;;5025534;28;20191;-66
2022/03/23 10:30:44;;;;;;;12.10;5.37;;;15.30;44.70;;;;;;5024130;28;20433;-64
2022/03/23 10:33:22;;;;;;;18.13;5.40;;;15.40;45.30;;;;;;5025231;28;20453;-65
2022/03/23 10:35:48;;;;;;;10.60;4.43;;;15.60;43.60;;;;;;5024080;28;20482;-64
2022/03/23 10:38:16;;;;;;;5.27;3.47;;;15.80;42.10;;;;;;5024626;28;20433;-66
2022/03/23 10:40:44;;;;;;;10.63;4.30;;;15.90;43.70;;;;;;5023444;28;20638;-66
2022/03/23 10:43:36;;;;;;;8.00;4.40;;;16.10;40.80;;;;;;5021051;28;20441;-66
2022/03/23 10:46:09;;;;;;;5.67;3.20;;;16.10;39.90;;;;;;5022848;28;20421;-66
2022/03/23 10:48:34;;;;;;;8.80;4.03;;;16.00;41.00;;;;;;5023483;28;20533;-66
2022/03/23 10:51:00;;;;;;;11.10;4.43;;;16.00;41.50;;;;;;5023115;28;20820;-66
2022/03/23 10:53:38;;;;;;;6.30;4.23;;;16.10;41.40;;;;;;5025354;28;20178;-66
2022/03/23 10:56:05;;;;;;;6.37;3.87;;;15.90;41.00;;;;;;5026215;28;20285;-66
2022/03/23 11:02:00;;;;;;;6.37;4.00;;;16.30;38.40;;;;;;5024189;28;21102;-65
2022/03/23 11:04:29;;;;;;;6.93;3.50;;;16.40;37.40;;;;;;5024646;28;20413;-67
2022/03/23 11:06:59;;;;;;;6.63;3.93;;;16.30;38.70;;;;;;5024522;28;20874;-66
2022/03/23 11:18:10;;;;;;;8.77;4.63;;;16.40;39.20;;;;;;5025182;28;20431;-66
2022/03/23 11:20:53;;;;;;;10.47;4.20;;;16.60;39.60;;;;;;5018416;28;20996;-66
2022/03/23 11:23:25;;;;;;;11.00;4.80;;;16.70;39.10;;;;;;5023210;28;20845;-66
2022/03/23 11:25:53;;;;;;;10.03;4.20;;;16.70;39.90;;;;;;5021056;28;20421;-67
2022/03/23 11:28:20;;;;;;;6.37;3.63;;;16.80;40.00;;;;;;5022181;28;20868;-66
2022/03/23 11:30:48;;;;;;;8.53;4.40;;;17.00;38.40;;;;;;5025470;28;20789;-66
2022/03/23 11:33:17;;;;;;;10.70;5.10;;;16.90;39.60;;;;;;5024359;28;20618;-66
2022/03/23 11:35:48;;;;;;;9.47;5.07;;;16.70;39.10;;;;;;5024833;28;21025;-67
2022/03/23 11:38:17;;;;;;;15.30;5.40;;;16.80;38.40;;;;;;5017023;28;20794;-65
2022/03/23 11:40:44;;;;;;;13.67;4.80;;;17.10;40.50;;;;;;5023059;28;20441;-66
2022/03/23 11:43:14;;;;;;;6.77;3.93;;;17.20;39.50;;;;;;5023821;28;20828;-66
2022/03/23 11:45:42;;;;;;;12.37;4.63;;;17.30;39.60;;;;;;5021483;28;20436;-66
2022/03/23 11:48:18;;;;;;;12.70;6.07;;;17.40;39.40;;;;;;5022934;28;20421;-66
2022/03/23 11:51:05;;;;;;;18.13;5.00;;;17.30;38.40;;;;;;5022077;28;20428;-66
2022/03/23 11:53:50;;;;;;;7.90;4.37;;;17.60;39.10;;;;;;5018199;28;20526;-66
2022/03/23 11:56:35;;;;;;;9.97;5.53;;;17.70;38.00;;;;;;5023689;28;20428;-66
2022/03/23 11:59:30;;;;;;;14.37;5.03;;;17.60;40.00;;;;;;5023772;28;20466;-66
2022/03/23 12:01:58;;;;;;;10.53;4.33;;;17.70;38.90;;;;;;5021223;28;20425;-66
2022/03/23 12:04:25;;;;;;;8.50;4.40;;;17.70;39.20;;;;;;5023944;28;20482;-67
2022/03/23 12:07:08;;;;;;;11.77;4.93;;;17.80;40.20;;;;;;5022983;28;20478;-66
2022/03/23 12:09:37;;;;;;;8.50;5.00;;;17.80;40.20;;;;;;5022030;28;20441;-66
2022/03/23 12:12:10;;;;;;;8.83;5.20;;;17.70;39.00;;;;;;5021413;28;20555;-66
2022/03/23 12:14:38;;;;;;;14.33;5.87;;;18.10;40.20;;;;;;5023318;28;20821;-66
2022/03/23 12:17:17;;;;;;;11.93;5.37;;;18.10;40.20;;;;;;5024519;28;20749;-66
2022/03/23 12:20:08;;;;;;;17.40;5.23;;;18.20;39.30;;;;;;5028642;28;20420;-66
2022/03/23 12:22:33;;;;;;;11.57;6.10;;;18.00;40.20;;;;;;5029236;28;21079;-65
2022/03/23 12:25:21;;;;;;;10.07;5.47;;;18.00;39.40;;;;;;5027886;28;20751;-66
2022/03/23 12:28:00;;;;;;;12.47;5.10;;;18.00;40.10;;;;;;5027071;28;20850;-66
2022/03/23 12:30:26;;;;;;;9.90;5.27;;;18.20;39.30;;;;;;5026569;28;20440;-66
2022/03/23 12:32:54;;;;;;;11.40;6.43;;;18.00;39.40;;;;;;5028059;28;20475;-66
2022/03/23 12:35:34;;;;;;;10.73;5.03;;;18.40;37.10;;;;;;5023478;28;20281;-66
2022/03/23 12:38:02;;;;;;;24.83;5.10;;;18.40;37.90;;;;;;5026502;28;20421;-66
2022/03/23 12:40:42;;;;;;;10.43;4.80;;;18.30;39.50;;;;;;5026656;28;20440;-66
2022/03/23 12:43:11;;;;;;;8.73;5.17;;;18.20;40.50;;;;;;5023415;28;20449;-66
2022/03/23 12:45:39;;;;;;;8.70;5.33;;;18.50;38.90;;;;;;5026988;28;20575;-65
2022/03/23 12:59:20;;;;;;;11.23;5.20;;;18.30;37.10;;;;;;5026406;28;20431;-65
2022/03/23 13:01:46;;;;;;;13.23;5.10;;;18.80;37.60;;;;;;5028613;28;20772;-66
2022/03/23 13:04:36;;;;;;;15.07;5.17;;;18.70;36.50;;;;;;5027349;28;20707;-66
2022/03/23 13:07:27;;;;;;;12.40;5.17;;;18.80;37.10;;;;;;5025811;28;20807;-66
2022/03/23 13:09:56;;;;;;;10.30;3.80;;;19.30;36.70;;;;;;5027060;28;20436;-70
2022/03/23 13:12:27;;;;;;;8.27;4.23;;;19.60;35.70;;;;;;5027601;28;21079;-70
2022/03/23 13:14:53;;;;;;;6.63;3.67;;;19.50;35.10;;;;;;5028693;28;20509;-69
2022/03/23 13:17:19;;;;;;;11.60;5.63;;;19.60;34.50;;;;;;5029220;28;20870;-69
2022/03/23 13:19:45;;;;;;;10.13;4.00;;;20.30;33.80;;;;;;5027841;28;20188;-70
2022/03/23 13:22:11;;;;;;;14.30;4.20;;;20.10;35.70;;;;;;5025679;28;20798;-70
2022/03/23 13:24:36;;;;;;;8.53;3.50;;;20.20;33.50;;;;;;5027370;28;20189;-71
2022/03/23 13:27:12;;;;;;;9.90;3.87;;;19.90;32.40;;;;;;5027576;28;20254;-71
2022/03/23 13:29:38;;;;;;;7.87;4.27;;;19.20;32.80;;;;;;5026868;28;20550;-70